Time;durP1;ratioP1;P1;durP2;ratioP2;P2;SDS_P1;SDS_P2;PMS_P1;PMS_P2;Temp;Humidity;BMP_temperature;BMP_pressure;BME280_temperature;BME280_humidity;BME280_pressure;Samples;Min_cycle;Max_cycle;Signal;HPM_P1;HPM_P2
2024/04/20 00:00:51;;;;;;;0.93;0.80;;;;;;;9.10;87.17;100210.03;5474114;26;19994;-66
2024/04/20 00:03:16;;;;;;;1.50;0.88;;;;;;;9.04;87.82;100222.19;5451601;26;20031;-64
2024/04/20 00:05:42;;;;;;;0.70;0.68;;;;;;;8.98;88.62;100235.13;5448566;26;19998;-65
2024/04/20 00:08:07;;;;;;;1.13;1.02;;;;;;;9.01;88.36;100231.75;5470785;26;19999;-65
2024/04/20 00:10:34;;;;;;;1.38;0.73;;;;;;;9.01;88.27;100230.97;5454515;26;20030;-65
2024/04/20 00:13:00;;;;;;;5.10;1.38;;;;;;;9.02;88.20;100233.28;5480916;26;19994;-66
2024/04/20 00:15:25;;;;;;;2.92;0.93;;;;;;;9.12;87.32;100241.91;5449408;26;19998;-66
2024/04/20 00:17:51;;;;;;;0.73;0.73;;;;;;;9.02;87.82;100251.28;5477203;26;20009;-65
2024/04/20 00:20:16;;;;;;;0.50;0.45;;;;;;;8.89;88.39;100245.31;5481087;26;20009;-66
2024/04/20 00:22:41;;;;;;;0.73;0.73;;;;;;;8.98;88.75;100255.84;5481667;26;20006;-65
2024/04/20 00:25:07;;;;;;;0.68;0.68;;;;;;;9.00;88.81;100262.41;5471826;26;20377;-64
2024/04/20 00:27:33;;;;;;;3.90;0.75;;;;;;;9.12;88.35;100268.78;5473931;26;19999;-66
2024/04/20 00:29:59;;;;;;;0.85;0.80;;;;;;;9.15;88.26;100270.75;5428073;26;20005;-65
2024/04/20 00:32:24;;;;;;;1.77;0.80;;;;;;;9.03;89.05;100272.44;5467775;26;20020;-64
2024/04/20 00:34:50;;;;;;;1.25;0.93;;;;;;;9.08;88.35;100277.53;5443179;26;20456;-64
2024/04/20 00:37:15;;;;;;;0.80;0.80;;;;;;;9.21;88.12;100282.75;5455569;26;20460;-64
2024/04/20 00:39:41;;;;;;;0.82;0.80;;;;;;;9.23;87.85;100288.56;5478283;26;20034;-66
2024/04/20 00:42:08;;;;;;;1.10;1.00;;;;;;;9.13;87.66;100287.22;5454124;26;20103;-66
2024/04/20 00:44:34;;;;;;;0.90;0.75;;;;;;;9.14;87.83;100293.38;5440965;26;20038;-64
2024/04/20 00:47:02;;;;;;;1.23;0.82;;;;;;;9.09;88.62;100292.53;5481159;26;21571;-65
2024/04/20 00:49:30;;;;;;;3.08;0.90;;;;;;;9.18;87.86;100307.63;5480508;26;20071;-66
2024/04/20 00:51:57;;;;;;;1.98;0.75;;;;;;;9.12;87.99;100293.72;5429715;26;20014;-67
2024/04/20 00:54:24;;;;;;;1.65;0.98;;;;;;;9.14;88.14;100312.94;5485008;26;20038;-65
2024/04/20 00:56:50;;;;;;;0.65;0.65;;;;;;;9.20;88.22;100305.38;5447070;26;20478;-64
2024/04/20 00:59:17;;;;;;;0.75;0.70;;;;;;;9.16;88.21;100310.69;5423130;26;19998;-64
2024/04/20 01:01:43;;;;;;;0.65;0.63;;;;;;;9.14;88.35;100312.19;5481525;26;20003;-66
2024/04/20 01:04:09;;;;;;;1.02;0.82;;;;;;;9.10;88.32;100320.16;5473011;26;20009;-65
2024/04/20 01:06:35;;;;;;;0.68;0.68;;;;;;;9.16;87.56;100318.75;5454780;26;20030;-64
2024/04/20 01:09:01;;;;;;;0.70;0.70;;;;;;;9.12;88.01;100322.50;5486939;26;20103;-65
2024/04/20 01:11:26;;;;;;;0.55;0.55;;;;;;;9.06;88.00;100324.66;5471358;26;19998;-66
2024/04/20 01:13:52;;;;;;;0.73;0.70;;;;;;;9.13;87.80;100337.47;5449856;26;20013;-64
2024/04/20 01:16:19;;;;;;;1.52;0.98;;;;;;;9.12;87.57;100328.63;5475060;26;19993;-65
2024/04/20 01:18:44;;;;;;;0.55;0.55;;;;;;;9.17;87.04;100333.75;5453016;26;19994;-65
2024/04/20 01:21:12;;;;;;;0.65;0.60;;;;;;;9.17;87.13;100341.78;5448656;26;20070;-64
2024/04/20 01:23:39;;;;;;;1.10;0.90;;;;;;;9.04;87.53;100346.50;5480597;26;20442;-67
2024/04/20 01:26:05;;;;;;;1.48;0.70;;;;;;;9.10;87.22;100347.78;5447795;26;20022;-65
2024/04/20 01:28:30;;;;;;;0.55;0.55;;;;;;;9.08;86.89;100355.41;5447192;26;20011;-66
2024/04/20 01:30:56;;;;;;;1.13;0.82;;;;;;;9.08;87.27;100363.47;5437592;26;20670;-67
2024/04/20 01:33:21;;;;;;;1.50;0.73;;;;;;;8.96;87.07;100363.59;5482728;26;19990;-66
2024/04/20 01:35:48;;;;;;;0.60;0.60;;;;;;;9.03;87.54;100376.41;5478734;26;20339;-65
2024/04/20 01:38:14;;;;;;;0.70;0.70;;;;;;;8.94;88.05;100392.69;5477963;26;20018;-65
2024/04/20 01:40:39;;;;;;;1.33;1.10;;;;;;;9.01;87.19;100381.34;5477070;26;20002;-66
2024/04/20 01:43:05;;;;;;;2.30;1.00;;;;;;;9.08;86.76;100382.28;5450195;26;19998;-65
2024/04/20 01:45:30;;;;;;;0.60;0.60;;;;;;;9.04;86.97;100391.38;5476855;26;20452;-64
2024/04/20 01:47:56;;;;;;;1.20;0.75;;;;;;;8.95;86.94;100383.53;5421038;26;20006;-66
2024/04/20 01:50:23;;;;;;;1.45;0.93;;;;;;;8.74;88.71;100391.09;5443328;26;20009;-66
2024/04/20 01:52:48;;;;;;;1.15;0.80;;;;;;;8.88;88.64;100391.41;5446333;26;20459;-65
2024/04/20 01:55:14;;;;;;;0.65;0.57;;;;;;;8.92;88.05;100407.63;5477661;26;20062;-66
2024/04/20 01:57:39;;;;;;;0.82;0.77;;;;;;;8.94;88.00;100402.69;5443043;26;20352;-65
2024/04/20 02:00:05;;;;;;;4.57;0.88;;;;;;;8.96;87.90;100409.25;5474348;26;19994;-65
2024/04/20 02:02:31;;;;;;;0.50;0.50;;;;;;;8.99;87.68;100405.88;5448137;26;20410;-66
2024/04/20 02:04:56;;;;;;;0.80;0.50;;;;;;;9.08;87.26;100401.09;5448171;26;20105;-66
2024/04/20 02:07:22;;;;;;;0.65;0.55;;;;;;;9.02;87.19;100407.84;5438992;26;19994;-65
2024/04/20 02:09:48;;;;;;;0.70;0.70;;;;;;;8.99;87.53;100411.25;5451289;26;20332;-66
2024/04/20 02:12:13;;;;;;;0.88;0.63;;;;;;;8.95;87.59;100413.06;5482441;26;20339;-65
2024/04/20 02:14:39;;;;;;;0.60;0.60;;;;;;;9.04;87.47;100412.88;5453178;26;19994;-67
2024/04/20 02:17:04;;;;;;;1.83;0.50;;;;;;;9.03;87.78;100417.47;5483687;26;19998;-66
2024/04/20 02:19:30;;;;;;;0.80;0.80;;;;;;;9.10;87.43;100431.06;5479638;26;20013;-66
2024/04/20 02:21:56;;;;;;;0.88;0.63;;;;;;;9.07;86.89;100430.97;5442358;26;20448;-66
2024/04/20 02:24:21;;;;;;;0.50;0.50;;;;;;;9.00;87.47;100438.88;5480290;26;20013;-65
2024/04/20 02:26:47;;;;;;;0.90;0.70;;;;;;;9.08;87.60;100436.00;5477440;26;20005;-67
2024/04/20 02:29:12;;;;;;;1.15;0.70;;;;;;;9.09;86.89;100445.63;5482470;26;20014;-66
2024/04/20 02:31:38;;;;;;;0.70;0.70;;;;;;;9.05;87.26;100452.03;5472460;26;20002;-69
2024/04/20 02:34:03;;;;;;;2.58;0.70;;;;;;;8.96;87.58;100452.22;5452811;26;20070;-66
2024/04/20 02:36:30;;;;;;;0.57;0.50;;;;;;;9.00;86.75;100450.38;5451231;26;20010;-66
2024/04/20 02:38:56;;;;;;;0.95;0.70;;;;;;;9.01;86.93;100454.66;5450555;26;20084;-66
2024/04/20 02:41:22;;;;;;;1.00;0.77;;;;;;;9.02;86.77;100461.56;5471973;26;20066;-66
2024/04/20 02:43:47;;;;;;;0.60;0.60;;;;;;;8.98;86.79;100460.69;5444329;26;19991;-65
2024/04/20 02:46:13;;;;;;;0.55;0.55;;;;;;;8.97;86.84;100461.06;5444813;26;20049;-65
2024/04/20 02:48:38;;;;;;;1.05;0.68;;;;;;;8.93;86.99;100466.34;5441073;26;20368;-65
2024/04/20 02:51:05;;;;;;;0.77;0.57;;;;;;;8.76;87.04;100469.38;5475574;26;19998;-65
2024/04/20 02:53:30;;;;;;;0.90;0.60;;;;;;;8.79;87.68;100468.69;5478447;26;20390;-65
2024/04/20 02:55:56;;;;;;;0.40;0.40;;;;;;;8.84;87.75;100473.81;5443812;26;20006;-65
2024/04/20 02:58:21;;;;;;;0.60;0.60;;;;;;;8.93;87.54;100473.63;5481811;26;19995;-64
2024/04/20 03:00:58;;;;;;;0.50;0.50;;;;;;;8.90;86.87;100477.75;5481186;26;20073;-66
2024/04/20 03:03:29;;;;;;;0.50;0.50;;;;;;;8.86;87.40;100487.66;5454771;26;19995;-65
2024/04/20 03:05:54;;;;;;;1.55;0.65;;;;;;;8.83;87.29;100490.25;5474995;26;20050;-66
2024/04/20 03:08:20;;;;;;;0.47;0.47;;;;;;;8.79;87.75;100498.22;5459072;26;20002;-66
2024/04/20 03:10:45;;;;;;;2.55;0.60;;;;;;;8.78;87.68;100502.03;5474885;26;20316;-66
2024/04/20 03:13:14;;;;;;;0.30;0.30;;;;;;;8.81;87.54;100514.75;5413047;26;19998;-65
2024/04/20 03:15:46;;;;;;;0.50;0.50;;;;;;;8.70;87.19;100515.63;5485355;26;20006;-67
2024/04/20 03:18:12;;;;;;;0.55;0.55;;;;;;;8.67;88.00;100508.28;5471809;26;20339;-65
2024/04/20 03:20:37;;;;;;;0.43;0.43;;;;;;;8.65;88.27;100508.59;5452730;26;20006;-65
2024/04/20 03:23:03;;;;;;;0.75;0.50;;;;;;;8.72;88.22;100522.22;5450797;26;20006;-67
2024/04/20 03:25:28;;;;;;;0.65;0.50;;;;;;;8.77;88.27;100518.47;5450551;26;20022;-67
2024/04/20 03:27:54;;;;;;;0.63;0.60;;;;;;;8.85;88.14;100517.53;5487244;26;20009;-66
2024/04/20 03:30:19;;;;;;;0.60;0.50;;;;;;;8.83;88.04;100520.56;5455809;26;19998;-66
2024/04/20 03:32:45;;;;;;;1.45;0.68;;;;;;;8.89;88.34;100527.25;5475219;26;20388;-66
2024/04/20 03:35:10;;;;;;;0.45;0.45;;;;;;;8.81;88.36;100530.88;5433734;26;19998;-65
2024/04/20 03:37:36;;;;;;;0.60;0.60;;;;;;;8.85;88.07;100526.38;5410273;26;20042;-68
2024/04/20 03:40:01;;;;;;;0.50;0.50;;;;;;;8.91;87.88;100529.56;5442794;26;20356;-65
2024/04/20 03:42:27;;;;;;;0.52;0.52;;;;;;;8.77;87.61;100535.38;5473222;26;20006;-70
2024/04/20 03:44:53;;;;;;;0.52;0.52;;;;;;;8.70;88.38;100537.09;5447606;26;20013;-66
2024/04/20 03:47:19;;;;;;;0.57;0.57;;;;;;;8.80;88.60;100545.44;5476776;26;20010;-66
2024/04/20 03:49:45;;;;;;;0.80;0.50;;;;;;;8.89;88.19;100550.63;5482474;26;19998;-66
2024/04/20 03:52:11;;;;;;;2.13;0.75;;;;;;;8.76;88.32;100555.28;5446150;26;20519;-66
2024/04/20 03:54:36;;;;;;;0.52;0.52;;;;;;;8.82;88.41;100564.66;5448041;26;19994;-68
2024/04/20 03:57:02;;;;;;;0.75;0.75;;;;;;;8.77;87.75;100559.53;5475776;26;20014;-66
2024/04/20 03:59:28;;;;;;;0.75;0.57;;;;;;;8.80;88.34;100563.44;5483880;26;20555;-65
2024/04/20 04:01:53;;;;;;;1.35;0.88;;;;;;;8.76;88.86;100568.72;5454630;26;20014;-67
2024/04/20 04:04:19;;;;;;;0.60;0.60;;;;;;;8.80;88.33;100572.28;5453459;26;20009;-66
2024/04/20 04:06:44;;;;;;;0.68;0.63;;;;;;;8.76;88.50;100570.63;5481117;26;20008;-66
2024/04/20 04:09:09;;;;;;;0.95;0.73;;;;;;;8.80;88.24;100582.22;5422293;26;19998;-66
2024/04/20 04:11:35;;;;;;;0.98;0.80;;;;;;;8.71;88.37;100571.63;5451531;26;20011;-66
2024/04/20 04:14:00;;;;;;;0.68;0.55;;;;;;;8.63;88.65;100583.31;5460146;26;19998;-66
2024/04/20 04:16:26;;;;;;;1.88;0.93;;;;;;;8.56;88.72;100585.81;5476376;26;20696;-66
2024/04/20 04:18:51;;;;;;;0.82;0.82;;;;;;;8.65;88.92;100594.47;5478731;26;20006;-67
2024/04/20 04:21:17;;;;;;;1.02;0.80;;;;;;;8.66;88.40;100596.06;5474814;26;19998;-66
2024/04/20 04:23:43;;;;;;;1.58;1.48;;;;;;;8.58;88.45;100599.66;5480715;26;20331;-68
2024/04/20 04:26:09;;;;;;;1.42;1.08;;;;;;;8.69;88.71;100603.41;5452840;26;20472;-67
2024/04/20 04:28:35;;;;;;;0.85;0.77;;;;;;;8.57;88.74;100614.22;5444465;26;20010;-67
2024/04/20 04:31:00;;;;;;;0.70;0.70;;;;;;;8.55;88.81;100611.09;5442813;26;20006;-67
2024/04/20 04:33:26;;;;;;;0.63;0.63;;;;;;;8.61;88.91;100623.16;5427743;26;20018;-66
2024/04/20 04:35:58;;;;;;;1.25;0.90;;;;;;;8.66;88.21;100620.22;5457325;26;19993;-65
2024/04/20 04:38:24;;;;;;;0.73;0.70;;;;;;;8.59;88.17;100617.34;5481410;26;19998;-70
2024/04/20 04:40:50;;;;;;;2.90;1.00;;;;;;;8.58;87.90;100614.97;5480085;26;20530;-65
2024/04/20 04:43:15;;;;;;;1.27;0.98;;;;;;;8.53;87.65;100626.75;5446591;26;20075;-66
2024/04/20 04:45:40;;;;;;;2.30;0.77;;;;;;;8.51;87.43;100631.69;5445203;26;20034;-66
2024/04/20 04:48:06;;;;;;;0.80;0.80;;;;;;;8.37;87.42;100633.97;5452588;26;20001;-68
2024/04/20 04:50:32;;;;;;;1.02;0.65;;;;;;;8.32;87.73;100634.22;5418939;26;20004;-66
2024/04/20 04:52:59;;;;;;;1.33;1.05;;;;;;;8.40;87.08;100644.00;5448290;26;21384;-66
2024/04/20 04:55:25;;;;;;;3.90;1.10;;;;;;;8.35;87.07;100652.31;5450717;26;20013;-66
2024/04/20 04:57:50;;;;;;;2.13;0.82;;;;;;;8.28;87.15;100654.78;5452550;26;19998;-66
2024/04/20 05:00:16;;;;;;;1.10;1.00;;;;;;;8.21;86.90;100665.25;5486412;26;20032;-66
2024/04/20 05:02:41;;;;;;;5.18;1.23;;;;;;;8.13;87.87;100674.22;5449611;26;20333;-65
2024/04/20 05:05:07;;;;;;;2.15;1.02;;;;;;;8.20;87.78;100671.75;5480286;26;20012;-67
2024/04/20 05:07:32;;;;;;;2.65;1.20;;;;;;;8.12;88.04;100672.66;5442131;26;20359;-65
2024/04/20 05:09:58;;;;;;;1.20;0.85;;;;;;;7.94;87.50;100679.38;5485420;26;20002;-66
2024/04/20 05:12:23;;;;;;;1.23;0.90;;;;;;;8.03;88.59;100680.81;5479379;26;20021;-65
2024/04/20 05:14:51;;;;;;;1.20;0.90;;;;;;;8.25;87.03;100679.59;5479479;26;20090;-66
2024/04/20 05:17:17;;;;;;;1.52;0.95;;;;;;;8.32;86.50;100682.50;5445019;26;20352;-65
2024/04/20 05:19:42;;;;;;;1.40;0.90;;;;;;;8.18;87.44;100679.34;5481480;26;19997;-66
2024/04/20 05:22:07;;;;;;;1.80;1.13;;;;;;;8.22;87.49;100677.56;5467069;26;20008;-66
2024/04/20 05:24:33;;;;;;;1.42;1.00;;;;;;;8.27;86.82;100677.34;5477243;26;20010;-65
2024/04/20 05:26:58;;;;;;;0.73;0.60;;;;;;;8.24;85.99;100686.06;5476592;26;20014;-65
2024/04/20 05:29:24;;;;;;;1.00;0.75;;;;;;;8.37;85.67;100689.50;5479621;26;20010;-66
2024/04/20 05:31:49;;;;;;;2.03;1.45;;;;;;;8.09;86.15;100692.13;5448846;26;20031;-66
2024/04/20 05:34:14;;;;;;;1.40;1.30;;;;;;;8.12;86.12;100691.44;5448128;26;20101;-67
2024/04/20 05:36:40;;;;;;;2.00;1.30;;;;;;;8.14;86.55;100697.25;5469040;26;19995;-68
2024/04/20 05:39:07;;;;;;;1.02;0.82;;;;;;;8.27;86.61;100704.19;5435376;26;20005;-68
2024/04/20 05:41:32;;;;;;;0.85;0.82;;;;;;;8.35;86.57;100705.97;5448139;26;19999;-67
2024/04/20 05:43:57;;;;;;;1.20;1.10;;;;;;;8.46;86.57;100709.72;5421450;26;20016;-66
2024/04/20 05:46:23;;;;;;;0.90;0.90;;;;;;;8.70;86.26;100720.41;5423960;26;20030;-67
2024/04/20 05:48:48;;;;;;;1.67;0.90;;;;;;;9.02;85.34;100718.59;5480119;26;20006;-67
2024/04/20 05:51:14;;;;;;;1.20;0.80;;;;;;;9.29;83.76;100722.41;5481609;26;20013;-65
2024/04/20 05:53:39;;;;;;;2.78;1.30;;;;;;;9.43;82.75;100725.47;5414334;26;20079;-67
2024/04/20 05:56:05;;;;;;;1.20;0.80;;;;;;;9.65;81.87;100730.25;5421057;26;20002;-67
2024/04/20 05:58:30;;;;;;;2.30;1.17;;;;;;;9.95;80.65;100734.06;5482275;26;20030;-66
2024/04/20 06:00:56;;;;;;;1.25;1.15;;;;;;;10.18;79.76;100743.09;5448478;26;19999;-69
2024/04/20 06:03:22;;;;;;;1.25;1.00;;;;;;;10.31;77.90;100743.78;5443573;26;20002;-69
2024/04/20 06:05:48;;;;;;;1.92;1.20;;;;;;;10.37;77.86;100751.25;5472077;26;20034;-67
2024/04/20 06:08:14;;;;;;;2.25;1.15;;;;;;;10.43;78.03;100754.47;5421911;26;20019;-66
2024/04/20 06:10:40;;;;;;;1.10;1.00;;;;;;;10.55;77.93;100765.13;5479758;26;20017;-67
2024/04/20 06:13:05;;;;;;;1.52;0.95;;;;;;;10.73;77.57;100767.06;5434422;26;20014;-66
2024/04/20 06:15:34;;;;;;;4.38;1.17;;;;;;;10.86;76.09;100770.38;5475987;26;20015;-68
2024/04/20 06:18:00;;;;;;;2.38;1.38;;;;;;;10.95;75.67;100775.56;5445301;26;19994;-67
2024/04/20 06:20:25;;;;;;;2.95;1.38;;;;;;;10.90;75.79;100773.94;5485238;26;20010;-66
2024/04/20 06:22:51;;;;;;;1.02;0.93;;;;;;;10.93;76.70;100783.22;5447495;26;20026;-66
2024/04/20 06:25:16;;;;;;;1.92;1.23;;;;;;;11.21;75.74;100784.59;5452052;26;19998;-66
2024/04/20 06:27:42;;;;;;;1.88;0.85;;;;;;;11.40;77.10;100787.25;5448779;26;20002;-66
2024/04/20 06:30:09;;;;;;;1.95;1.20;;;;;;;11.62;76.83;100791.94;5459205;26;20005;-66
2024/04/20 06:32:34;;;;;;;1.83;1.08;;;;;;;11.74;76.73;100793.69;5453170;26;20009;-67
2024/04/20 06:35:00;;;;;;;2.67;1.17;;;;;;;11.99;75.71;100784.13;5480910;26;19998;-71
2024/04/20 06:37:25;;;;;;;2.67;1.27;;;;;;;12.17;73.80;100797.91;5452030;26;20410;-66
2024/04/20 06:39:51;;;;;;;2.25;1.33;;;;;;;12.34;73.40;100800.09;5433637;26;20020;-66
2024/04/20 06:42:17;;;;;;;2.78;1.13;;;;;;;12.42;75.33;100799.84;5477312;26;20359;-66
2024/04/20 06:44:50;;;;;;;1.67;1.30;;;;;;;12.59;71.69;100802.03;5469714;26;19998;-70
2024/04/20 06:47:15;;;;;;;1.45;1.13;;;;;;;12.66;71.86;100795.94;5449730;26;20074;-66
2024/04/20 06:49:41;;;;;;;1.90;1.27;;;;;;;12.68;72.65;100801.75;5471040;26;20348;-66
2024/04/20 06:52:08;;;;;;;1.02;0.80;;;;;;;12.64;72.64;100803.63;5474852;26;20427;-66
2024/04/20 06:54:33;;;;;;;1.60;0.95;;;;;;;12.77;74.09;100806.91;5477458;26;19998;-66
2024/04/20 06:56:59;;;;;;;1.35;1.10;;;;;;;12.89;73.48;100817.50;5450861;26;20009;-69
2024/04/20 06:59:25;;;;;;;2.03;1.40;;;;;;;13.02;72.92;100822.31;5480545;26;20034;-67
2024/04/20 07:01:51;;;;;;;2.00;0.90;;;;;;;13.12;74.25;100818.22;5446334;26;19999;-66
2024/04/20 07:04:16;;;;;;;2.17;1.30;;;;;;;13.23;73.76;100824.53;5445698;26;20346;-68
2024/04/20 07:06:42;;;;;;;2.50;1.25;;;;;;;13.31;74.12;100829.69;5477572;26;20367;-66
2024/04/20 07:09:07;;;;;;;4.50;1.55;;;;;;;13.47;71.02;100832.19;5462542;26;20070;-68
2024/04/20 07:11:33;;;;;;;2.75;1.30;;;;;;;13.46;68.86;100836.00;5482682;26;20014;-68
2024/04/20 07:13:58;;;;;;;2.95;1.63;;;;;;;13.39;69.16;100830.53;5486051;26;20006;-65
2024/04/20 07:16:24;;;;;;;1.77;1.20;;;;;;;13.55;68.89;100840.00;5452720;26;20005;-67
2024/04/20 07:18:49;;;;;;;1.85;1.27;;;;;;;13.54;67.65;100845.78;5476415;26;19999;-65
2024/04/20 07:21:14;;;;;;;1.77;1.10;;;;;;;13.44;68.13;100849.91;5453684;26;20336;-65
2024/04/20 07:23:40;;;;;;;2.28;1.20;;;;;;;13.45;66.48;100850.69;5476688;26;20027;-66
2024/04/20 07:26:07;;;;;;;1.75;1.10;;;;;;;13.58;67.27;100857.41;5483392;26;20010;-65
2024/04/20 07:28:33;;;;;;;2.15;1.27;;;;;;;13.97;68.44;100852.41;5442404;26;20034;-68
2024/04/20 07:30:59;;;;;;;1.58;0.90;;;;;;;14.21;67.47;100863.47;5473392;26;20008;-65
2024/04/20 07:33:24;;;;;;;1.38;1.10;;;;;;;14.16;64.65;100866.53;5438989;26;20002;-65
2024/04/20 07:35:51;;;;;;;1.55;1.25;;;;;;;14.03;66.24;100862.53;5450118;26;20021;-65
2024/04/20 07:38:16;;;;;;;2.38;1.27;;;;;;;13.98;67.06;100872.91;5481102;26;19998;-65
2024/04/20 07:40:42;;;;;;;1.77;1.15;;;;;;;14.08;66.27;100878.44;5480583;26;20167;-66
2024/04/20 07:43:08;;;;;;;1.55;1.33;;;;;;;14.13;65.74;100882.75;5457097;26;20009;-66
2024/04/20 07:45:34;;;;;;;4.60;1.30;;;;;;;14.07;64.80;100887.72;5486081;26;20005;-65
2024/04/20 07:48:00;;;;;;;2.53;1.45;;;;;;;13.88;65.04;100887.91;5482364;26;19994;-66
2024/04/20 07:50:25;;;;;;;2.70;1.27;;;;;;;13.90;66.53;100895.69;5474946;26;20467;-65
2024/04/20 07:52:51;;;;;;;2.55;1.15;;;;;;;13.85;67.07;100896.00;5454017;26;20001;-67
2024/04/20 07:55:17;;;;;;;1.10;0.98;;;;;;;13.77;66.89;100903.25;5484425;26;19998;-65
2024/04/20 07:57:46;;;;;;;3.70;1.40;;;;;;;13.61;64.53;100899.22;5438429;26;20014;-67
2024/04/20 08:00:12;;;;;;;1.95;1.17;;;;;;;13.39;65.80;100896.22;5482763;26;19998;-67
2024/04/20 08:02:39;;;;;;;2.05;1.08;;;;;;;13.23;66.11;100903.75;5482765;26;20073;-66
2024/04/20 08:05:06;;;;;;;2.30;1.50;;;;;;;13.09;66.76;100910.88;5453378;26;19999;-66
2024/04/20 08:07:32;;;;;;;1.45;1.23;;;;;;;13.03;65.95;100915.00;5483847;26;19994;-65
2024/04/20 08:09:57;;;;;;;3.63;1.63;;;;;;;12.91;67.72;100916.00;5449978;26;20681;-66
2024/04/20 08:12:23;;;;;;;1.40;1.30;;;;;;;12.87;67.09;100922.50;5480863;26;20009;-65
2024/04/20 08:14:48;;;;;;;1.67;1.10;;;;;;;12.88;67.88;100910.53;5482252;26;20055;-66
2024/04/20 08:17:14;;;;;;;1.98;1.10;;;;;;;12.87;66.50;100917.88;5479306;26;20447;-66
2024/04/20 08:19:39;;;;;;;2.00;1.15;;;;;;;12.96;68.60;100925.72;5483258;26;19994;-66
2024/04/20 08:22:05;;;;;;;1.58;1.15;;;;;;;13.07;68.11;100924.75;5481265;26;20016;-65
2024/04/20 08:24:32;;;;;;;1.65;1.50;;;;;;;13.15;66.47;100928.34;5448137;26;19998;-66
2024/04/20 08:26:58;;;;;;;1.40;1.08;;;;;;;13.09;62.82;100932.50;5473607;26;20009;-65
2024/04/20 08:29:24;;;;;;;1.30;0.95;;;;;;;13.03;64.91;100931.22;5450197;26;19998;-65
2024/04/20 08:31:50;;;;;;;2.95;1.42;;;;;;;13.06;65.25;100933.25;5446480;26;19999;-67
2024/04/20 08:34:15;;;;;;;2.60;1.55;;;;;;;13.07;64.69;100932.09;5433709;26;19998;-66
2024/04/20 08:36:41;;;;;;;1.35;0.85;;;;;;;13.19;63.17;100935.38;5442513;26;20005;-66
2024/04/20 08:39:06;;;;;;;1.40;0.90;;;;;;;13.30;61.34;100935.50;5450934;26;19994;-66
2024/04/20 08:41:33;;;;;;;1.02;0.90;;;;;;;13.34;60.00;100939.03;5479595;26;20008;-66
2024/04/20 08:44:03;;;;;;;0.85;0.73;;;;;;;13.38;59.82;100939.88;5479351;26;20006;-64
2024/04/20 08:46:29;;;;;;;1.60;1.07;;;;;;;13.37;60.19;100952.66;5454561;26;20515;-71
2024/04/20 08:48:59;;;;;;;2.05;0.85;;;;;;;13.31;59.13;100956.03;5482065;26;20005;-66
2024/04/20 08:51:24;;;;;;;1.60;0.93;;;;;;;13.27;60.27;100960.59;5417331;26;20002;-66
2024/04/20 08:53:52;;;;;;;1.95;1.10;;;;;;;13.36;62.57;100958.41;5483378;26;20008;-66
2024/04/20 08:56:19;;;;;;;1.83;0.70;;;;;;;13.57;60.71;100953.25;5454439;26;20070;-67
2024/04/20 08:58:44;;;;;;;0.77;0.73;;;;;;;13.70;63.84;100965.44;5481505;26;20026;-66
2024/04/20 09:01:12;;;;;;;0.65;0.63;;;;;;;13.79;61.82;100962.44;5459849;26;20013;-67
2024/04/20 09:03:37;;;;;;;1.38;1.08;;;;;;;13.73;63.22;100956.56;5447543;26;20010;-66
2024/04/20 09:06:03;;;;;;;0.73;0.68;;;;;;;13.73;63.42;100961.97;5468693;26;20340;-65
2024/04/20 09:08:31;;;;;;;1.42;0.88;;;;;;;13.74;60.83;100963.56;5454097;26;19998;-66
2024/04/20 09:10:57;;;;;;;1.60;0.82;;;;;;;13.73;61.49;100961.97;5450547;26;20021;-66
2024/04/20 09:13:22;;;;;;;1.98;0.90;;;;;;;13.78;58.61;100969.00;5443662;26;19998;-66
2024/04/20 09:15:48;;;;;;;0.85;0.65;;;;;;;13.77;57.76;100970.16;5449426;26;20013;-65
2024/04/20 09:18:19;;;;;;;1.23;0.68;;;;;;;13.70;60.31;100972.78;5436690;26;20668;-66
2024/04/20 09:20:47;;;;;;;;;;;;;;;13.91;64.15;100981.16;5473834;26;20009;-66
2024/04/20 09:23:12;;;;;;;0.80;0.80;;;;;;;14.29;59.79;100973.50;5478772;26;19959;-66
2024/04/20 09:25:38;;;;;;;1.75;0.80;;;;;;;14.58;56.82;100965.63;5444856;26;20080;-66
2024/04/20 09:28:07;;;;;;;1.35;0.93;;;;;;;14.71;56.74;100977.78;5486198;26;19990;-66
2024/04/20 09:30:33;;;;;;;0.90;0.85;;;;;;;14.60;54.87;100971.47;5477431;26;20000;-66
2024/04/20 09:32:59;;;;;;;1.67;0.88;;;;;;;14.52;56.13;100973.31;5418482;26;20463;-66
2024/04/20 09:35:24;;;;;;;1.10;0.90;;;;;;;14.36;55.25;100962.72;5485943;26;19994;-65
2024/04/20 09:37:52;;;;;;;0.68;0.68;;;;;;;14.12;55.49;100979.47;5475865;26;20005;-65
2024/04/20 09:40:17;;;;;;;0.95;0.82;;;;;;;13.98;57.21;100973.09;5473738;26;20016;-66
2024/04/20 09:42:46;;;;;;;0.60;0.57;;;;;;;13.85;56.98;100963.69;5448863;26;20009;-68
2024/04/20 09:45:12;;;;;;;1.88;0.80;;;;;;;13.73;59.03;100974.72;5485075;26;20002;-66
2024/04/20 09:47:39;;;;;;;0.77;0.70;;;;;;;13.63;60.29;100975.41;5480046;26;20104;-68
2024/04/20 09:50:12;;;;;;;0.77;0.73;;;;;;;13.52;60.09;100977.94;5437867;26;20014;-65
2024/04/20 09:52:55;;;;;;;0.82;0.65;;;;;;;13.40;61.04;100976.25;5446084;26;19994;-67
2024/04/20 09:55:30;;;;;;;0.65;0.65;;;;;;;13.25;61.61;100977.19;5472853;26;20018;-66
2024/04/20 09:57:58;;;;;;;2.15;1.20;;;;;;;13.16;64.70;100986.72;5448013;26;20007;-64
2024/04/20 10:00:24;;;;;;;0.50;0.50;;;;;;;13.01;66.11;101001.88;5449022;26;20576;-65
2024/04/20 10:02:50;;;;;;;1.75;0.93;;;;;;;13.01;64.81;100998.41;5448750;26;20010;-66
2024/04/20 10:05:17;;;;;;;2.13;0.90;;;;;;;12.89;65.80;101009.41;5477600;26;20017;-66
2024/04/20 10:07:44;;;;;;;2.50;0.60;;;;;;;12.79;67.42;101013.50;5478123;26;19998;-65
2024/04/20 10:10:11;;;;;;;1.27;0.90;;;;;;;12.65;69.01;101005.94;5474818;26;19994;-66
2024/04/20 10:12:40;;;;;;;1.48;1.17;;;;;;;12.59;68.64;101006.59;5448158;26;20079;-67
2024/04/20 10:15:06;;;;;;;1.10;1.00;;;;;;;12.55;69.40;101013.84;5481507;26;20009;-66
2024/04/20 10:17:32;;;;;;;1.17;0.80;;;;;;;12.42;70.23;101015.16;5424005;26;20034;-64
2024/04/20 10:19:57;;;;;;;1.17;0.80;;;;;;;12.40;67.92;101014.72;5416807;26;19999;-64
2024/04/20 10:22:23;;;;;;;0.60;0.60;;;;;;;12.18;68.64;101024.34;5475977;26;20015;-65
2024/04/20 10:24:58;;;;;;;0.70;0.70;;;;;;;11.97;70.68;101028.50;5450633;26;20070;-66
2024/04/20 10:27:30;;;;;;;0.93;0.80;;;;;;;11.90;70.74;101023.78;5449365;26;19998;-64
2024/04/20 10:30:22;;;;;;;0.57;0.50;;;;;;;11.74;69.99;101021.13;5450244;26;20013;-65
2024/04/20 10:32:53;;;;;;;0.70;0.70;;;;;;;11.47;70.27;101027.44;5452612;26;20013;-65
2024/04/20 10:35:22;;;;;;;1.15;0.80;;;;;;;11.28;70.71;101029.28;5480925;26;20049;-64
2024/04/20 10:38:01;;;;;;;0.77;0.68;;;;;;;11.17;71.81;101036.34;5451917;26;20086;-67
2024/04/20 10:40:31;;;;;;;1.85;1.02;;;;;;;11.11;72.79;101040.44;5484188;26;20469;-65
2024/04/20 10:43:23;;;;;;;1.17;0.70;;;;;;;11.09;72.74;101042.69;5482248;26;20018;-64
2024/04/20 10:46:05;;;;;;;0.82;0.65;;;;;;;11.04;74.49;101051.00;5463391;26;20231;-65
2024/04/20 10:48:31;;;;;;;1.70;0.77;;;;;;;11.16;73.17;101056.31;5449806;26;20009;-65
2024/04/20 10:51:06;;;;;;;2.20;1.30;;;;;;;11.10;73.83;101069.28;5455758;26;20002;-65
2024/04/20 10:53:32;;;;;;;0.80;0.70;;;;;;;11.16;74.42;101080.59;5484411;26;20046;-64
2024/04/20 10:56:00;;;;;;;2.53;1.02;;;;;;;11.17;76.39;101082.16;5475008;26;20452;-68
2024/04/20 10:58:26;;;;;;;0.55;0.52;;;;;;;11.17;77.01;101076.78;5480510;26;19999;-64
2024/04/20 11:01:01;;;;;;;3.60;0.63;;;;;;;11.23;76.51;101078.06;5451543;26;20039;-66
2024/04/20 11:03:27;;;;;;;4.13;0.82;;;;;;;11.19;75.65;101086.06;5456120;26;20001;-66
2024/04/20 11:05:53;;;;;;;0.93;0.65;;;;;;;11.16;75.59;101080.59;5455861;26;20002;-64
2024/04/20 11:08:19;;;;;;;0.38;0.38;;;;;;;11.13;74.65;101092.06;5443797;26;20359;-66
2024/04/20 11:10:52;;;;;;;0.95;0.73;;;;;;;11.04;75.20;101088.75;5447000;26;19998;-67
2024/04/20 11:13:17;;;;;;;0.25;0.25;;;;;;;11.02;75.20;101093.69;5481148;26;20006;-64
2024/04/20 11:15:46;;;;;;;1.10;0.68;;;;;;;11.05;75.22;101088.44;5485377;26;20055;-67
2024/04/20 11:18:16;;;;;;;0.50;0.50;;;;;;;11.12;74.14;101093.19;5473430;26;20029;-65
2024/04/20 11:20:41;;;;;;;0.93;0.70;;;;;;;11.13;74.38;101090.16;5483138;26;20017;-65
2024/04/20 11:23:07;;;;;;;0.95;0.40;;;;;;;11.14;74.56;101093.63;5486722;26;20002;-67
2024/04/20 11:25:33;;;;;;;0.60;0.60;;;;;;;11.15;76.64;101084.44;5480375;26;20343;-65